18°C Temp
18°C Dewpoint
100% Humidity
Temperature
5 KM/H
3 MPH
3 KTS
150°
South South
East

Wind Speed
Clear
Conditions
Pressure 1016.92 (hPa) - 30.03 (in)
Visibility 6.2 (mi) - 10.0 (km)

Current Conditions
LIMP
Location 40(km)
Metar :LIMP 201850Z 15003KT 100V250 CAVOK 18/18 Q1017
Sun 20th October 19:50 pm

Airport
  Metar Aviation API Data Provided by https://www.checkwx.com/ PHP scripts by weather34.com ©2019